sensor_id;sensor_type;location;lat;lon;timestamp;P1;durP1;ratioP1;P2;durP2;ratioP2
19396;SDS011;9834;48.076;11.878;2023-02-26T00:00:40;1.50;;;1.40;;
19396;SDS011;9834;48.076;11.878;2023-02-26T00:03:07;2.73;;;1.40;;
19396;SDS011;9834;48.076;11.878;2023-02-26T00:05:35;1.83;;;1.00;;
19396;SDS011;9834;48.076;11.878;2023-02-26T00:08:02;1.73;;;1.03;;
19396;SDS011;9834;48.076;11.878;2023-02-26T00:10:30;0.80;;;0.80;;
19396;SDS011;9834;48.076;11.878;2023-02-26T00:12:58;0.80;;;0.80;;
19396;SDS011;9834;48.076;11.878;2023-02-26T00:15:26;3.23;;;1.33;;
19396;SDS011;9834;48.076;11.878;2023-02-26T00:17:57;1.53;;;1.27;;
19396;SDS011;9834;48.076;11.878;2023-02-26T00:20:28;1.33;;;1.23;;
19396;SDS011;9834;48.076;11.878;2023-02-26T00:22:56;2.17;;;1.43;;
19396;SDS011;9834;48.076;11.878;2023-02-26T00:25:24;1.40;;;1.30;;
19396;SDS011;9834;48.076;11.878;2023-02-26T00:27:52;1.60;;;1.33;;
19396;SDS011;9834;48.076;11.878;2023-02-26T00:30:20;1.40;;;1.30;;
19396;SDS011;9834;48.076;11.878;2023-02-26T00:32:49;3.03;;;1.77;;
19396;SDS011;9834;48.076;11.878;2023-02-26T00:35:18;1.63;;;1.30;;
19396;SDS011;9834;48.076;11.878;2023-02-26T00:37:55;1.83;;;1.50;;
19396;SDS011;9834;48.076;11.878;2023-02-26T00:40:28;2.73;;;1.60;;
19396;SDS011;9834;48.076;11.878;2023-02-26T00:43:08;1.37;;;1.27;;
19396;SDS011;9834;48.076;11.878;2023-02-26T00:45:42;1.40;;;1.30;;
19396;SDS011;9834;48.076;11.878;2023-02-26T00:48:24;1.63;;;1.47;;
19396;SDS011;9834;48.076;11.878;2023-02-26T00:51:04;1.50;;;1.37;;
19396;SDS011;9834;48.076;11.878;2023-02-26T00:53:39;1.93;;;1.77;;
19396;SDS011;9834;48.076;11.878;2023-02-26T00:56:12;2.27;;;1.10;;
19396;SDS011;9834;48.076;11.878;2023-02-26T00:58:40;2.20;;;1.40;;
19396;SDS011;9834;48.076;11.878;2023-02-26T01:01:07;2.20;;;1.40;;
19396;SDS011;9834;48.076;11.878;2023-02-26T01:03:35;1.43;;;1.33;;
19396;SDS011;9834;48.076;11.878;2023-02-26T01:06:08;1.27;;;1.17;;
19396;SDS011;9834;48.076;11.878;2023-02-26T01:08:38;3.33;;;2.07;;
19396;SDS011;9834;48.076;11.878;2023-02-26T01:11:14;2.00;;;1.50;;
19396;SDS011;9834;48.076;11.878;2023-02-26T01:13:42;1.87;;;1.53;;
19396;SDS011;9834;48.076;11.878;2023-02-26T01:16:10;3.77;;;1.60;;
19396;SDS011;9834;48.076;11.878;2023-02-26T01:18:45;4.23;;;2.77;;
19396;SDS011;9834;48.076;11.878;2023-02-26T01:21:21;7.93;;;3.57;;
19396;SDS011;9834;48.076;11.878;2023-02-26T01:23:54;3.93;;;2.20;;
19396;SDS011;9834;48.076;11.878;2023-02-26T01:26:22;1.37;;;1.27;;
19396;SDS011;9834;48.076;11.878;2023-02-26T01:28:52;2.00;;;1.80;;
19396;SDS011;9834;48.076;11.878;2023-02-26T01:31:25;1.23;;;1.13;;
19396;SDS011;9834;48.076;11.878;2023-02-26T01:34:02;1.40;;;1.30;;
19396;SDS011;9834;48.076;11.878;2023-02-26T01:36:38;1.77;;;1.23;;
19396;SDS011;9834;48.076;11.878;2023-02-26T01:39:11;1.00;;;0.93;;
19396;SDS011;9834;48.076;11.878;2023-02-26T01:41:44;1.40;;;1.30;;
19396;SDS011;9834;48.076;11.878;2023-02-26T01:44:17;1.27;;;1.17;;
19396;SDS011;9834;48.076;11.878;2023-02-26T01:47:03;1.10;;;1.00;;
19396;SDS011;9834;48.076;11.878;2023-02-26T01:49:37;2.30;;;1.27;;
19396;SDS011;9834;48.076;11.878;2023-02-26T01:52:58;1.10;;;1.10;;
19396;SDS011;9834;48.076;11.878;2023-02-26T01:55:12;1.53;;;1.43;;
19396;SDS011;9834;48.076;11.878;2023-02-26T01:57:43;1.10;;;1.00;;
19396;SDS011;9834;48.076;11.878;2023-02-26T02:00:10;1.70;;;1.50;;
19396;SDS011;9834;48.076;11.878;2023-02-26T02:02:39;1.77;;;1.50;;
19396;SDS011;9834;48.076;11.878;2023-02-26T02:05:09;2.17;;;1.10;;
19396;SDS011;9834;48.076;11.878;2023-02-26T02:07:42;1.93;;;1.47;;
19396;SDS011;9834;48.076;11.878;2023-02-26T02:10:10;1.60;;;1.23;;
19396;SDS011;9834;48.076;11.878;2023-02-26T02:12:38;1.83;;;1.40;;
19396;SDS011;9834;48.076;11.878;2023-02-26T02:15:14;3.13;;;1.30;;
19396;SDS011;9834;48.076;11.878;2023-02-26T02:17:48;2.20;;;1.60;;
19396;SDS011;9834;48.076;11.878;2023-02-26T02:20:26;1.83;;;1.70;;
19396;SDS011;9834;48.076;11.878;2023-02-26T02:23:16;1.30;;;1.20;;
19396;SDS011;9834;48.076;11.878;2023-02-26T02:32:19;2.00;;;1.43;;
19396;SDS011;9834;48.076;11.878;2023-02-26T02:34:51;2.60;;;1.37;;
19396;SDS011;9834;48.076;11.878;2023-02-26T02:37:25;1.37;;;1.10;;
19396;SDS011;9834;48.076;11.878;2023-02-26T02:39:56;1.03;;;1.03;;
19396;SDS011;9834;48.076;11.878;2023-02-26T02:42:28;4.87;;;1.40;;
19396;SDS011;9834;48.076;11.878;2023-02-26T02:44:59;2.43;;;1.80;;
19396;SDS011;9834;48.076;11.878;2023-02-26T02:47:32;1.67;;;1.30;;
19396;SDS011;9834;48.076;11.878;2023-02-26T02:50:04;1.50;;;1.40;;
19396;SDS011;9834;48.076;11.878;2023-02-26T02:52:36;1.60;;;1.40;;
19396;SDS011;9834;48.076;11.878;2023-02-26T02:55:09;1.40;;;1.27;;
19396;SDS011;9834;48.076;11.878;2023-02-26T02:57:41;1.40;;;1.30;;
19396;SDS011;9834;48.076;11.878;2023-02-26T03:00:14;1.70;;;1.27;;
19396;SDS011;9834;48.076;11.878;2023-02-26T03:02:48;1.50;;;1.40;;
19396;SDS011;9834;48.076;11.878;2023-02-26T03:05:20;1.77;;;1.30;;
19396;SDS011;9834;48.076;11.878;2023-02-26T03:07:50;2.13;;;1.27;;
19396;SDS011;9834;48.076;11.878;2023-02-26T03:10:20;1.90;;;1.70;;
19396;SDS011;9834;48.076;11.878;2023-02-26T03:12:48;3.03;;;1.63;;
19396;SDS011;9834;48.076;11.878;2023-02-26T03:15:16;2.23;;;1.60;;
19396;SDS011;9834;48.076;11.878;2023-02-26T03:17:53;4.37;;;1.73;;
19396;SDS011;9834;48.076;11.878;2023-02-26T03:20:27;2.20;;;1.20;;
19396;SDS011;9834;48.076;11.878;2023-02-26T03:23:02;1.87;;;1.60;;
19396;SDS011;9834;48.076;11.878;2023-02-26T03:25:37;2.47;;;1.30;;
19396;SDS011;9834;48.076;11.878;2023-02-26T03:28:13;1.20;;;1.07;;
19396;SDS011;9834;48.076;11.878;2023-02-26T03:30:52;1.10;;;1.10;;
19396;SDS011;9834;48.076;11.878;2023-02-26T03:33:27;1.70;;;1.37;;
19396;SDS011;9834;48.076;11.878;2023-02-26T03:36:00;2.37;;;1.30;;
19396;SDS011;9834;48.076;11.878;2023-02-26T03:38:33;2.93;;;1.50;;
19396;SDS011;9834;48.076;11.878;2023-02-26T03:41:07;2.40;;;1.33;;
19396;SDS011;9834;48.076;11.878;2023-02-26T03:43:40;1.90;;;1.40;;
19396;SDS011;9834;48.076;11.878;2023-02-26T03:46:13;1.47;;;1.10;;
19396;SDS011;9834;48.076;11.878;2023-02-26T03:48:45;1.37;;;1.27;;
19396;SDS011;9834;48.076;11.878;2023-02-26T03:51:15;1.13;;;0.90;;
19396;SDS011;9834;48.076;11.878;2023-02-26T03:53:46;1.53;;;1.03;;
19396;SDS011;9834;48.076;11.878;2023-02-26T03:56:18;3.27;;;1.27;;
19396;SDS011;9834;48.076;11.878;2023-02-26T03:58:49;1.27;;;0.80;;
19396;SDS011;9834;48.076;11.878;2023-02-26T04:01:17;1.43;;;1.10;;
19396;SDS011;9834;48.076;11.878;2023-02-26T04:03:51;1.43;;;1.20;;
19396;SDS011;9834;48.076;11.878;2023-02-26T04:06:23;1.10;;;1.00;;
19396;SDS011;9834;48.076;11.878;2023-02-26T04:08:51;3.80;;;1.30;;
19396;SDS011;9834;48.076;11.878;2023-02-26T04:11:20;1.07;;;0.93;;
19396;SDS011;9834;48.076;11.878;2023-02-26T04:13:50;1.30;;;1.00;;
19396;SDS011;9834;48.076;11.878;2023-02-26T04:16:17;2.60;;;1.33;;
19396;SDS011;9834;48.076;11.878;2023-02-26T04:18:45;1.30;;;1.10;;
19396;SDS011;9834;48.076;11.878;2023-02-26T04:21:14;2.30;;;1.10;;
19396;SDS011;9834;48.076;11.878;2023-02-26T04:23:44;3.30;;;1.17;;
19396;SDS011;9834;48.076;11.878;2023-02-26T04:26:12;1.43;;;1.03;;
19396;SDS011;9834;48.076;11.878;2023-02-26T04:28:39;4.93;;;1.20;;
19396;SDS011;9834;48.076;11.878;2023-02-26T04:31:07;3.83;;;1.37;;
19396;SDS011;9834;48.076;11.878;2023-02-26T04:33:35;1.33;;;0.93;;
19396;SDS011;9834;48.076;11.878;2023-02-26T04:36:03;0.73;;;0.73;;
19396;SDS011;9834;48.076;11.878;2023-02-26T04:38:32;2.93;;;1.33;;
19396;SDS011;9834;48.076;11.878;2023-02-26T04:41:00;0.83;;;0.67;;
19396;SDS011;9834;48.076;11.878;2023-02-26T04:43:27;1.93;;;1.17;;
19396;SDS011;9834;48.076;11.878;2023-02-26T04:45:55;2.03;;;1.37;;
19396;SDS011;9834;48.076;11.878;2023-02-26T04:48:22;0.80;;;0.80;;
19396;SDS011;9834;48.076;11.878;2023-02-26T04:50:50;5.67;;;1.10;;
19396;SDS011;9834;48.076;11.878;2023-02-26T04:53:17;1.30;;;0.90;;
19396;SDS011;9834;48.076;11.878;2023-02-26T04:55:47;2.00;;;1.10;;
19396;SDS011;9834;48.076;11.878;2023-02-26T04:58:15;1.17;;;1.00;;
19396;SDS011;9834;48.076;11.878;2023-02-26T05:00:42;2.33;;;1.10;;
19396;SDS011;9834;48.076;11.878;2023-02-26T05:03:14;3.27;;;1.90;;
19396;SDS011;9834;48.076;11.878;2023-02-26T05:05:41;1.63;;;1.17;;
19396;SDS011;9834;48.076;11.878;2023-02-26T05:08:09;1.07;;;0.97;;
19396;SDS011;9834;48.076;11.878;2023-02-26T05:10:36;3.73;;;1.23;;
19396;SDS011;9834;48.076;11.878;2023-02-26T05:13:06;1.13;;;0.97;;
19396;SDS011;9834;48.076;11.878;2023-02-26T05:15:33;1.90;;;0.93;;
19396;SDS011;9834;48.076;11.878;2023-02-26T05:18:01;1.17;;;1.07;;
19396;SDS011;9834;48.076;11.878;2023-02-26T05:20:28;0.87;;;0.80;;
19396;SDS011;9834;48.076;11.878;2023-02-26T05:22:56;0.93;;;0.80;;
19396;SDS011;9834;48.076;11.878;2023-02-26T05:25:23;0.93;;;0.90;;
19396;SDS011;9834;48.076;11.878;2023-02-26T05:27:51;0.73;;;0.73;;
19396;SDS011;9834;48.076;11.878;2023-02-26T05:30:22;1.23;;;1.10;;
19396;SDS011;9834;48.076;11.878;2023-02-26T05:32:49;1.10;;;0.73;;
19396;SDS011;9834;48.076;11.878;2023-02-26T05:35:18;2.40;;;1.30;;
19396;SDS011;9834;48.076;11.878;2023-02-26T05:37:45;1.40;;;0.90;;
19396;SDS011;9834;48.076;11.878;2023-02-26T05:40:12;2.63;;;1.17;;
19396;SDS011;9834;48.076;11.878;2023-02-26T05:42:40;1.03;;;0.93;;
19396;SDS011;9834;48.076;11.878;2023-02-26T05:45:08;3.53;;;1.13;;
19396;SDS011;9834;48.076;11.878;2023-02-26T05:47:37;2.33;;;0.90;;
19396;SDS011;9834;48.076;11.878;2023-02-26T05:50:05;3.53;;;1.07;;
19396;SDS011;9834;48.076;11.878;2023-02-26T05:52:32;1.07;;;0.97;;
19396;SDS011;9834;48.076;11.878;2023-02-26T05:55:00;0.93;;;0.83;;
19396;SDS011;9834;48.076;11.878;2023-02-26T05:57:27;1.03;;;0.93;;
19396;SDS011;9834;48.076;11.878;2023-02-26T05:59:55;2.83;;;0.97;;
19396;SDS011;9834;48.076;11.878;2023-02-26T06:02:22;0.90;;;0.73;;
19396;SDS011;9834;48.076;11.878;2023-02-26T06:04:51;3.07;;;1.50;;
19396;SDS011;9834;48.076;11.878;2023-02-26T06:07:19;4.57;;;1.60;;
19396;SDS011;9834;48.076;11.878;2023-02-26T06:09:47;2.23;;;1.60;;
19396;SDS011;9834;48.076;11.878;2023-02-26T06:12:14;3.47;;;1.13;;
19396;SDS011;9834;48.076;11.878;2023-02-26T06:14:42;1.73;;;1.20;;
19396;SDS011;9834;48.076;11.878;2023-02-26T06:17:09;1.57;;;0.97;;
19396;SDS011;9834;48.076;11.878;2023-02-26T06:19:36;2.30;;;1.70;;
19396;SDS011;9834;48.076;11.878;2023-02-26T06:22:04;2.27;;;1.40;;
19396;SDS011;9834;48.076;11.878;2023-02-26T06:24:32;7.10;;;1.17;;
19396;SDS011;9834;48.076;11.878;2023-02-26T06:26:59;1.77;;;1.23;;
19396;SDS011;9834;48.076;11.878;2023-02-26T06:29:26;1.20;;;1.10;;
19396;SDS011;9834;48.076;11.878;2023-02-26T06:31:53;2.53;;;1.63;;
19396;SDS011;9834;48.076;11.878;2023-02-26T06:34:21;1.53;;;1.30;;
19396;SDS011;9834;48.076;11.878;2023-02-26T06:36:48;1.53;;;1.20;;
19396;SDS011;9834;48.076;11.878;2023-02-26T06:39:17;7.47;;;1.63;;
19396;SDS011;9834;48.076;11.878;2023-02-26T06:41:44;1.87;;;1.53;;
19396;SDS011;9834;48.076;11.878;2023-02-26T06:44:11;1.83;;;1.27;;
19396;SDS011;9834;48.076;11.878;2023-02-26T06:46:39;1.73;;;1.30;;
19396;SDS011;9834;48.076;11.878;2023-02-26T06:49:05;3.57;;;1.60;;
19396;SDS011;9834;48.076;11.878;2023-02-26T06:51:33;2.50;;;1.40;;
19396;SDS011;9834;48.076;11.878;2023-02-26T06:54:00;1.37;;;1.27;;
19396;SDS011;9834;48.076;11.878;2023-02-26T06:56:29;1.20;;;1.10;;
19396;SDS011;9834;48.076;11.878;2023-02-26T06:58:57;2.77;;;1.40;;
19396;SDS011;9834;48.076;11.878;2023-02-26T07:01:24;2.47;;;1.87;;
19396;SDS011;9834;48.076;11.878;2023-02-26T07:03:52;3.23;;;1.50;;
19396;SDS011;9834;48.076;11.878;2023-02-26T07:06:19;0.93;;;0.90;;
19396;SDS011;9834;48.076;11.878;2023-02-26T07:08:47;1.60;;;1.17;;
19396;SDS011;9834;48.076;11.878;2023-02-26T07:11:14;3.00;;;1.23;;
19396;SDS011;9834;48.076;11.878;2023-02-26T07:13:43;1.10;;;1.00;;
19396;SDS011;9834;48.076;11.878;2023-02-26T07:16:10;1.77;;;1.50;;
19396;SDS011;9834;48.076;11.878;2023-02-26T07:18:38;2.27;;;1.20;;
19396;SDS011;9834;48.076;11.878;2023-02-26T07:21:05;1.67;;;1.40;;
19396;SDS011;9834;48.076;11.878;2023-02-26T07:23:32;2.80;;;2.10;;
19396;SDS011;9834;48.076;11.878;2023-02-26T07:25:59;2.43;;;1.90;;
19396;SDS011;9834;48.076;11.878;2023-02-26T07:28:27;3.17;;;1.60;;
19396;SDS011;9834;48.076;11.878;2023-02-26T07:30:55;1.80;;;1.20;;
19396;SDS011;9834;48.076;11.878;2023-02-26T07:33:23;2.23;;;1.93;;
19396;SDS011;9834;48.076;11.878;2023-02-26T07:35:52;2.20;;;1.00;;
19396;SDS011;9834;48.076;11.878;2023-02-26T07:38:20;1.43;;;1.20;;
19396;SDS011;9834;48.076;11.878;2023-02-26T07:40:47;1.83;;;1.30;;
19396;SDS011;9834;48.076;11.878;2023-02-26T07:43:14;1.30;;;1.20;;
19396;SDS011;9834;48.076;11.878;2023-02-26T07:45:41;2.40;;;1.90;;
19396;SDS011;9834;48.076;11.878;2023-02-26T07:48:10;1.37;;;1.27;;
19396;SDS011;9834;48.076;11.878;2023-02-26T07:50:37;1.70;;;1.60;;
19396;SDS011;9834;48.076;11.878;2023-02-26T07:53:04;1.70;;;1.30;;
19396;SDS011;9834;48.076;11.878;2023-02-26T07:55:31;2.70;;;1.43;;
19396;SDS011;9834;48.076;11.878;2023-02-26T07:57:58;2.67;;;1.10;;
19396;SDS011;9834;48.076;11.878;2023-02-26T08:00:26;1.33;;;1.10;;
19396;SDS011;9834;48.076;11.878;2023-02-26T08:02:53;2.17;;;1.40;;
19396;SDS011;9834;48.076;11.878;2023-02-26T08:05:21;1.87;;;1.47;;
19396;SDS011;9834;48.076;11.878;2023-02-26T08:07:48;3.60;;;2.00;;
19396;SDS011;9834;48.076;11.878;2023-02-26T08:10:16;1.90;;;1.73;;
19396;SDS011;9834;48.076;11.878;2023-02-26T08:12:43;5.23;;;1.80;;
19396;SDS011;9834;48.076;11.878;2023-02-26T08:15:11;1.80;;;1.43;;
19396;SDS011;9834;48.076;11.878;2023-02-26T08:17:38;4.40;;;1.87;;
19396;SDS011;9834;48.076;11.878;2023-02-26T08:20:06;2.53;;;1.50;;
19396;SDS011;9834;48.076;11.878;2023-02-26T08:22:37;1.97;;;1.70;;
19396;SDS011;9834;48.076;11.878;2023-02-26T08:25:05;2.13;;;1.40;;
19396;SDS011;9834;48.076;11.878;2023-02-26T08:27:33;1.53;;;1.30;;
19396;SDS011;9834;48.076;11.878;2023-02-26T08:30:00;1.70;;;1.33;;
19396;SDS011;9834;48.076;11.878;2023-02-26T08:32:28;2.00;;;1.53;;
19396;SDS011;9834;48.076;11.878;2023-02-26T08:34:55;1.53;;;1.30;;
19396;SDS011;9834;48.076;11.878;2023-02-26T08:37:22;2.33;;;1.57;;
19396;SDS011;9834;48.076;11.878;2023-02-26T08:39:50;1.87;;;1.33;;
19396;SDS011;9834;48.076;11.878;2023-02-26T08:42:17;4.03;;;1.47;;
19396;SDS011;9834;48.076;11.878;2023-02-26T08:44:45;1.50;;;1.40;;
19396;SDS011;9834;48.076;11.878;2023-02-26T08:47:13;1.30;;;1.20;;
19396;SDS011;9834;48.076;11.878;2023-02-26T08:49:40;1.53;;;0.90;;
19396;SDS011;9834;48.076;11.878;2023-02-26T08:52:07;1.63;;;1.53;;
19396;SDS011;9834;48.076;11.878;2023-02-26T08:54:35;2.60;;;1.33;;
19396;SDS011;9834;48.076;11.878;2023-02-26T08:57:03;3.93;;;1.60;;
19396;SDS011;9834;48.076;11.878;2023-02-26T08:59:31;2.37;;;1.50;;
19396;SDS011;9834;48.076;11.878;2023-02-26T09:01:58;1.47;;;1.23;;
19396;SDS011;9834;48.076;11.878;2023-02-26T09:04:25;5.03;;;2.03;;
19396;SDS011;9834;48.076;11.878;2023-02-26T09:06:54;1.77;;;1.50;;
19396;SDS011;9834;48.076;11.878;2023-02-26T09:09:21;1.73;;;1.63;;
19396;SDS011;9834;48.076;11.878;2023-02-26T09:11:48;1.50;;;1.40;;
19396;SDS011;9834;48.076;11.878;2023-02-26T09:14:17;1.97;;;1.73;;
19396;SDS011;9834;48.076;11.878;2023-02-26T09:16:45;1.27;;;1.17;;
19396;SDS011;9834;48.076;11.878;2023-02-26T09:19:12;2.87;;;1.90;;
19396;SDS011;9834;48.076;11.878;2023-02-26T09:21:40;1.97;;;1.67;;
19396;SDS011;9834;48.076;11.878;2023-02-26T09:24:07;1.70;;;1.10;;
19396;SDS011;9834;48.076;11.878;2023-02-26T09:26:35;1.90;;;1.67;;
19396;SDS011;9834;48.076;11.878;2023-02-26T09:29:03;1.67;;;1.57;;
19396;SDS011;9834;48.076;11.878;2023-02-26T09:31:31;1.63;;;1.47;;
19396;SDS011;9834;48.076;11.878;2023-02-26T09:33:59;1.90;;;1.73;;
19396;SDS011;9834;48.076;11.878;2023-02-26T09:36:26;3.20;;;2.70;;
19396;SDS011;9834;48.076;11.878;2023-02-26T09:38:55;8.30;;;4.37;;
19396;SDS011;9834;48.076;11.878;2023-02-26T09:41:23;3.40;;;2.83;;
19396;SDS011;9834;48.076;11.878;2023-02-26T09:44:01;11.60;;;4.60;;
19396;SDS011;9834;48.076;11.878;2023-02-26T09:46:40;9.33;;;3.83;;
19396;SDS011;9834;48.076;11.878;2023-02-26T09:49:16;2.27;;;1.70;;
19396;SDS011;9834;48.076;11.878;2023-02-26T09:51:49;1.50;;;1.40;;
19396;SDS011;9834;48.076;11.878;2023-02-26T09:54:20;1.87;;;1.77;;
19396;SDS011;9834;48.076;11.878;2023-02-26T09:56:50;7.37;;;3.63;;
19396;SDS011;9834;48.076;11.878;2023-02-26T09:59:20;6.07;;;2.50;;
19396;SDS011;9834;48.076;11.878;2023-02-26T10:01:50;1.93;;;1.80;;
19396;SDS011;9834;48.076;11.878;2023-02-26T10:04:26;3.87;;;1.30;;
19396;SDS011;9834;48.076;11.878;2023-02-26T10:07:09;3.27;;;2.07;;
19396;SDS011;9834;48.076;11.878;2023-02-26T10:09:48;1.47;;;1.37;;
19396;SDS011;9834;48.076;11.878;2023-02-26T10:12:27;2.57;;;1.47;;
19396;SDS011;9834;48.076;11.878;2023-02-26T10:14:57;3.67;;;1.53;;
19396;SDS011;9834;48.076;11.878;2023-02-26T10:17:31;2.03;;;1.70;;
19396;SDS011;9834;48.076;11.878;2023-02-26T10:20:05;1.90;;;1.50;;
19396;SDS011;9834;48.076;11.878;2023-02-26T10:22:42;1.50;;;1.40;;
19396;SDS011;9834;48.076;11.878;2023-02-26T10:25:14;2.30;;;1.63;;
19396;SDS011;9834;48.076;11.878;2023-02-26T10:27:47;2.00;;;1.90;;
19396;SDS011;9834;48.076;11.878;2023-02-26T10:30:25;1.50;;;1.40;;
19396;SDS011;9834;48.076;11.878;2023-02-26T10:33:02;2.23;;;1.67;;
19396;SDS011;9834;48.076;11.878;2023-02-26T10:35:39;1.47;;;1.37;;
19396;SDS011;9834;48.076;11.878;2023-02-26T10:38:14;1.97;;;1.77;;
19396;SDS011;9834;48.076;11.878;2023-02-26T10:40:46;2.10;;;1.90;;
19396;SDS011;9834;48.076;11.878;2023-02-26T10:43:17;2.93;;;1.90;;
19396;SDS011;9834;48.076;11.878;2023-02-26T10:45:57;2.53;;;2.13;;
19396;SDS011;9834;48.076;11.878;2023-02-26T10:49:01;2.00;;;1.90;;
19396;SDS011;9834;48.076;11.878;2023-02-26T10:51:50;2.17;;;1.87;;
19396;SDS011;9834;48.076;11.878;2023-02-26T10:54:21;3.77;;;2.27;;
19396;SDS011;9834;48.076;11.878;2023-02-26T10:56:53;2.23;;;2.03;;
19396;SDS011;9834;48.076;11.878;2023-02-26T10:59:20;1.60;;;1.50;;
19396;SDS011;9834;48.076;11.878;2023-02-26T11:01:47;1.63;;;1.53;;
19396;SDS011;9834;48.076;11.878;2023-02-26T11:04:25;3.00;;;2.40;;
19396;SDS011;9834;48.076;11.878;2023-02-26T11:06:54;2.57;;;2.30;;
19396;SDS011;9834;48.076;11.878;2023-02-26T11:09:23;2.17;;;1.83;;
19396;SDS011;9834;48.076;11.878;2023-02-26T11:11:53;2.77;;;1.50;;
19396;SDS011;9834;48.076;11.878;2023-02-26T11:14:22;3.07;;;2.10;;
19396;SDS011;9834;48.076;11.878;2023-02-26T11:16:53;3.00;;;1.90;;
19396;SDS011;9834;48.076;11.878;2023-02-26T11:19:25;2.10;;;1.67;;
19396;SDS011;9834;48.076;11.878;2023-02-26T11:21:56;1.83;;;1.43;;
19396;SDS011;9834;48.076;11.878;2023-02-26T11:24:27;1.87;;;1.77;;
19396;SDS011;9834;48.076;11.878;2023-02-26T11:26:59;2.23;;;1.60;;
19396;SDS011;9834;48.076;11.878;2023-02-26T11:29:31;2.77;;;2.10;;
19396;SDS011;9834;48.076;11.878;2023-02-26T11:32:02;5.27;;;1.87;;
19396;SDS011;9834;48.076;11.878;2023-02-26T11:34:31;2.23;;;2.00;;
19396;SDS011;9834;48.076;11.878;2023-02-26T11:37:10;2.10;;;1.90;;
19396;SDS011;9834;48.076;11.878;2023-02-26T11:39:37;1.67;;;1.57;;
19396;SDS011;9834;48.076;11.878;2023-02-26T11:42:05;2.00;;;1.57;;
19396;SDS011;9834;48.076;11.878;2023-02-26T11:44:36;1.40;;;1.30;;
19396;SDS011;9834;48.076;11.878;2023-02-26T11:47:06;1.47;;;1.33;;
19396;SDS011;9834;48.076;11.878;2023-02-26T11:49:52;1.83;;;1.73;;
19396;SDS011;9834;48.076;11.878;2023-02-26T11:52:24;1.43;;;1.20;;
19396;SDS011;9834;48.076;11.878;2023-02-26T11:54:59;1.20;;;1.10;;
19396;SDS011;9834;48.076;11.878;2023-02-26T11:57:28;1.10;;;1.07;;
19396;SDS011;9834;48.076;11.878;2023-02-26T11:59:58;1.77;;;1.20;;
19396;SDS011;9834;48.076;11.878;2023-02-26T12:02:31;1.60;;;1.00;;
19396;SDS011;9834;48.076;11.878;2023-02-26T12:05:02;0.70;;;0.70;;
19396;SDS011;9834;48.076;11.878;2023-02-26T12:07:32;1.20;;;1.07;;
19396;SDS011;9834;48.076;11.878;2023-02-26T12:10:00;1.93;;;1.13;;
19396;SDS011;9834;48.076;11.878;2023-02-26T12:12:36;1.57;;;0.93;;
19396;SDS011;9834;48.076;11.878;2023-02-26T12:15:21;0.90;;;0.90;;
19396;SDS011;9834;48.076;11.878;2023-02-26T12:17:58;1.33;;;1.00;;
19396;SDS011;9834;48.076;11.878;2023-02-26T12:20:44;2.07;;;1.80;;
19396;SDS011;9834;48.076;11.878;2023-02-26T12:23:23;1.33;;;1.23;;
19396;SDS011;9834;48.076;11.878;2023-02-26T12:26:12;0.97;;;0.97;;
19396;SDS011;9834;48.076;11.878;2023-02-26T12:28:54;1.33;;;1.13;;
19396;SDS011;9834;48.076;11.878;2023-02-26T12:34:58;1.73;;;1.20;;
19396;SDS011;9834;48.076;11.878;2023-02-26T12:37:50;1.07;;;1.07;;
19396;SDS011;9834;48.076;11.878;2023-02-26T12:40:38;1.13;;;1.03;;
19396;SDS011;9834;48.076;11.878;2023-02-26T12:43:29;1.33;;;1.20;;
19396;SDS011;9834;48.076;11.878;2023-02-26T12:46:06;1.50;;;1.40;;
19396;SDS011;9834;48.076;11.878;2023-02-26T12:51:35;2.10;;;1.47;;
19396;SDS011;9834;48.076;11.878;2023-02-26T12:54:21;1.97;;;1.20;;
19396;SDS011;9834;48.076;11.878;2023-02-26T12:57:08;1.00;;;1.00;;
19396;SDS011;9834;48.076;11.878;2023-02-26T12:59:54;1.30;;;1.20;;
19396;SDS011;9834;48.076;11.878;2023-02-26T13:02:54;1.10;;;0.90;;
19396;SDS011;9834;48.076;11.878;2023-02-26T13:06:01;1.03;;;0.70;;
19396;SDS011;9834;48.076;11.878;2023-02-26T13:08:49;0.70;;;0.70;;
19396;SDS011;9834;48.076;11.878;2023-02-26T13:11:26;0.77;;;0.77;;
19396;SDS011;9834;48.076;11.878;2023-02-26T13:14:09;1.80;;;1.03;;
19396;SDS011;9834;48.076;11.878;2023-02-26T13:16:50;0.83;;;0.70;;
19396;SDS011;9834;48.076;11.878;2023-02-26T13:19:24;0.40;;;0.40;;
19396;SDS011;9834;48.076;11.878;2023-02-26T13:21:56;0.83;;;0.53;;
19396;SDS011;9834;48.076;11.878;2023-02-26T13:24:30;0.63;;;0.50;;
19396;SDS011;9834;48.076;11.878;2023-02-26T13:27:04;0.40;;;0.40;;
19396;SDS011;9834;48.076;11.878;2023-02-26T13:29:36;0.50;;;0.50;;
19396;SDS011;9834;48.076;11.878;2023-02-26T13:32:07;1.37;;;1.27;;
19396;SDS011;9834;48.076;11.878;2023-02-26T13:34:40;0.57;;;0.57;;
19396;SDS011;9834;48.076;11.878;2023-02-26T13:37:20;0.60;;;0.60;;
19396;SDS011;9834;48.076;11.878;2023-02-26T13:39:53;0.73;;;0.50;;
19396;SDS011;9834;48.076;11.878;2023-02-26T13:42:28;0.80;;;0.80;;
19396;SDS011;9834;48.076;11.878;2023-02-26T13:45:05;0.77;;;0.77;;
19396;SDS011;9834;48.076;11.878;2023-02-26T13:47:52;1.97;;;0.90;;
19396;SDS011;9834;48.076;11.878;2023-02-26T13:50:29;1.10;;;1.00;;
19396;SDS011;9834;48.076;11.878;2023-02-26T13:56:16;1.17;;;1.07;;
19396;SDS011;9834;48.076;11.878;2023-02-26T13:58:50;1.20;;;0.90;;
19396;SDS011;9834;48.076;11.878;2023-02-26T14:01:25;0.87;;;0.87;;
19396;SDS011;9834;48.076;11.878;2023-02-26T14:04:06;1.73;;;0.93;;
19396;SDS011;9834;48.076;11.878;2023-02-26T14:06:48;0.60;;;0.60;;
19396;SDS011;9834;48.076;11.878;2023-02-26T14:12:23;0.60;;;0.50;;
19396;SDS011;9834;48.076;11.878;2023-02-26T14:15:26;1.27;;;0.70;;
19396;SDS011;9834;48.076;11.878;2023-02-26T14:18:03;2.33;;;1.00;;
19396;SDS011;9834;48.076;11.878;2023-02-26T14:20:33;0.60;;;0.60;;
19396;SDS011;9834;48.076;11.878;2023-02-26T14:23:12;0.70;;;0.70;;
19396;SDS011;9834;48.076;11.878;2023-02-26T14:25:50;0.50;;;0.50;;
19396;SDS011;9834;48.076;11.878;2023-02-26T14:28:33;0.60;;;0.60;;
19396;SDS011;9834;48.076;11.878;2023-02-26T14:31:18;0.63;;;0.63;;
19396;SDS011;9834;48.076;11.878;2023-02-26T14:33:57;1.00;;;0.90;;
19396;SDS011;9834;48.076;11.878;2023-02-26T14:36:34;0.53;;;0.53;;
19396;SDS011;9834;48.076;11.878;2023-02-26T14:39:07;0.50;;;0.50;;
19396;SDS011;9834;48.076;11.878;2023-02-26T14:41:43;0.73;;;0.73;;
19396;SDS011;9834;48.076;11.878;2023-02-26T14:44:13;0.50;;;0.50;;
19396;SDS011;9834;48.076;11.878;2023-02-26T14:46:43;0.73;;;0.43;;
19396;SDS011;9834;48.076;11.878;2023-02-26T14:49:13;0.60;;;0.60;;
19396;SDS011;9834;48.076;11.878;2023-02-26T14:51:46;1.30;;;0.90;;
19396;SDS011;9834;48.076;11.878;2023-02-26T14:54:24;0.60;;;0.60;;
19396;SDS011;9834;48.076;11.878;2023-02-26T14:57:01;1.33;;;1.23;;
19396;SDS011;9834;48.076;11.878;2023-02-26T14:59:43;0.80;;;0.80;;
19396;SDS011;9834;48.076;11.878;2023-02-26T15:02:29;0.93;;;0.87;;
19396;SDS011;9834;48.076;11.878;2023-02-26T15:05:05;1.47;;;1.30;;
19396;SDS011;9834;48.076;11.878;2023-02-26T15:10:53;1.67;;;1.10;;
19396;SDS011;9834;48.076;11.878;2023-02-26T15:13:57;1.80;;;0.90;;
19396;SDS011;9834;48.076;11.878;2023-02-26T15:16:43;1.57;;;1.47;;
19396;SDS011;9834;48.076;11.878;2023-02-26T15:19:24;1.73;;;1.17;;
19396;SDS011;9834;48.076;11.878;2023-02-26T15:22:08;1.40;;;1.00;;
19396;SDS011;9834;48.076;11.878;2023-02-26T15:24:48;0.83;;;0.83;;
19396;SDS011;9834;48.076;11.878;2023-02-26T15:27:16;3.30;;;1.17;;
19396;SDS011;9834;48.076;11.878;2023-02-26T15:29:45;3.07;;;1.07;;
19396;SDS011;9834;48.076;11.878;2023-02-26T15:32:15;1.77;;;1.07;;
19396;SDS011;9834;48.076;11.878;2023-02-26T15:34:56;0.87;;;0.53;;
19396;SDS011;9834;48.076;11.878;2023-02-26T15:37:26;0.80;;;0.80;;
19396;SDS011;9834;48.076;11.878;2023-02-26T15:39:54;0.87;;;0.73;;